Duncans Bridge, Missouri
Current Conditions -  °F | °C
As of 2:55 AM on Wednesday 22 Oct 2014 (Local Time) from KIRK Reporting Station
Clear Clear  
Wind Chill: 39°   Ceiling: Unl
Heat Index: 43°   Visibility: 10mi
Dew Point: 40°   Wind: 7mph
Humidity: 89%   Direction: 110°ESE
Pressure: 30.23"   Gusts: NA
Location:  39.735°N, 92.239°W
Report Text: KIRK 220755Z AUTO 11006KT 10SM CLR 06/04 A3023 RMK AO2 SLP240 T00610044
Loading
Personal Weather Stations






























Interactive Weather Map
Tropical Storm Tracking
New forecast layout! Learn more

10-Day Weather Forecast

Advertisements
Track Severe Weather on mobile